Time;durP1;ratioP1;P1;durP2;ratioP2;P2;SDS_P1;SDS_P2;PMS_P1;PMS_P2;Temp;Humidity;BMP_temperature;BMP_pressure;BME280_temperature;BME280_humidity;BME280_pressure;Samples;Min_cycle;Max_cycle;Signal;HPM_P1;HPM_P2
2024/01/01 00:02:13;;;;;;;;;;;14.70;80.40;;;;;;5055723;28;20361;-74
2024/01/01 00:04:39;;;;;;;;;;;14.80;80.60;;;;;;5055635;28;19927;-71
2024/01/01 00:07:04;;;;;;;;;;;14.50;80.50;;;;;;5055707;28;19909;-71
2024/01/01 00:09:30;;;;;;;;;;;14.70;81.20;;;;;;5055729;28;19915;-71
2024/01/01 00:11:56;;;;;;;;;;;14.80;81.80;;;;;;5055668;28;19916;-71
2024/01/01 00:14:21;;;;;;;;;;;14.70;81.00;;;;;;5037733;28;19980;-71
2024/01/01 00:16:48;;;;;;;;;;;14.70;81.00;;;;;;5055454;28;19936;-71
2024/01/01 00:19:14;;;;;;;;;;;14.70;81.00;;;;;;5055366;28;19913;-71
2024/01/01 00:21:40;;;;;;;;;;;14.70;81.10;;;;;;5055651;28;19923;-71
2024/01/01 00:24:06;;;;;;;;;;;14.70;81.30;;;;;;5055361;28;19917;-71
2024/01/01 00:26:32;;;;;;;;;;;14.70;80.50;;;;;;5055387;28;19916;-71
2024/01/01 00:28:57;;;;;;;;;;;14.70;81.30;;;;;;5055269;28;19909;-72
2024/01/01 00:31:23;;;;;;;;;;;14.70;81.40;;;;;;5055391;28;20367;-71
2024/01/01 00:33:49;;;;;;;;;;;14.70;81.30;;;;;;5055576;28;19912;-73
2024/01/01 00:36:15;;;;;;;;;;;14.60;81.00;;;;;;5055404;28;19931;-73
2024/01/01 00:38:41;;;;;;;;;;;14.70;80.80;;;;;;5055478;28;19969;-73
2024/01/01 00:41:12;;;;;;;;;;;14.70;81.20;;;;;;5055218;28;20279;-73
2024/01/01 00:43:38;;;;;;;;;;;14.70;81.30;;;;;;5055320;28;19912;-73
2024/01/01 00:46:04;;;;;;;;;;;14.80;81.30;;;;;;5055270;28;19920;-73
2024/01/01 00:48:29;;;;;;;;;;;14.60;81.10;;;;;;5055019;28;20303;-72
2024/01/01 00:50:55;;;;;;;;;;;14.50;81.30;;;;;;5054875;28;19958;-75
2024/01/01 00:53:21;;;;;;;;;;;14.60;81.20;;;;;;5055209;28;19924;-71
2024/01/01 00:55:47;;;;;;;;;;;14.80;82.10;;;;;;5054691;28;19912;-71
2024/01/01 00:58:13;;;;;;;;;;;14.60;80.90;;;;;;5036895;28;19909;-71
2024/01/01 01:00:39;;;;;;;;;;;14.70;81.30;;;;;;5055063;28;20314;-71
2024/01/01 01:03:05;;;;;;;;;;;14.60;81.10;;;;;;5054823;28;19909;-71
2024/01/01 01:05:31;;;;;;;;;;;14.60;81.20;;;;;;5053686;28;19924;-71
2024/01/01 01:07:58;;;;;;;;;;;14.50;80.90;;;;;;5054610;28;20472;-72
2024/01/01 01:10:24;;;;;;;;;;;14.60;81.20;;;;;;5054867;28;19912;-71
2024/01/01 01:12:53;;;;;;;;;;;14.60;81.20;;;;;;5054808;28;19908;-73
2024/01/01 01:15:20;;;;;;;;;;;14.60;81.40;;;;;;5054623;28;19909;-72
2024/01/01 01:17:45;;;;;;;;;;;14.50;80.90;;;;;;5054338;28;19916;-73
2024/01/01 01:20:11;;;;;;;;;;;14.50;81.30;;;;;;5054756;28;19909;-73
2024/01/01 01:22:37;;;;;;;;;;;14.70;81.30;;;;;;5054636;28;19916;-74
2024/01/01 01:25:03;;;;;;;;;;;14.50;81.10;;;;;;5054675;28;20001;-73
2024/01/01 01:27:29;;;;;;;;;;;14.60;80.00;;;;;;5054494;28;19915;-73
2024/01/01 01:29:55;;;;;;;;;;;14.50;81.30;;;;;;5054615;28;20330;-73
2024/01/01 01:32:21;;;;;;;;;;;14.60;81.20;;;;;;5054522;28;19938;-73
2024/01/01 01:34:46;;;;;;;;;;;14.50;81.20;;;;;;5054391;28;19952;-73
2024/01/01 01:37:12;;;;;;;;;;;14.60;81.50;;;;;;5053933;28;19917;-73
2024/01/01 01:39:37;;;;;;;;;;;14.50;81.30;;;;;;5054119;28;19913;-73
2024/01/01 01:42:03;;;;;;;;;;;14.50;81.40;;;;;;5054011;28;19963;-73
2024/01/01 01:44:29;;;;;;;;;;;14.50;80.20;;;;;;5054203;28;19999;-73
2024/01/01 01:46:55;;;;;;;;;;;14.50;81.40;;;;;;5054177;28;19909;-73
2024/01/01 01:49:21;;;;;;;;;;;14.50;81.70;;;;;;5053890;28;19916;-73
2024/01/01 01:51:48;;;;;;;;;;;14.50;81.40;;;;;;5053890;28;19954;-73
2024/01/01 01:54:14;;;;;;;;;;;14.50;81.70;;;;;;5054015;28;19909;-73
2024/01/01 01:56:40;;;;;;;;;;;14.40;81.70;;;;;;5053685;28;19923;-73
2024/01/01 01:59:06;;;;;;;;;;;14.40;81.30;;;;;;5053835;28;19908;-73
2024/01/01 02:01:31;;;;;;;;;;;14.40;81.00;;;;;;5053560;28;19909;-73
2024/01/01 02:03:57;;;;;;;;;;;14.40;81.30;;;;;;5053664;28;19909;-73
2024/01/01 02:06:23;;;;;;;;;;;14.40;81.60;;;;;;5054004;28;19992;-71
2024/01/01 02:08:49;;;;;;;;;;;14.60;81.60;;;;;;5053567;28;20002;-72
2024/01/01 02:11:15;;;;;;;;;;;14.30;81.20;;;;;;5053741;28;19945;-72
2024/01/01 02:13:41;;;;;;;;;;;14.40;81.20;;;;;;5053341;28;20386;-71
2024/01/01 02:16:07;;;;;;;;;;;14.40;81.20;;;;;;5053481;28;20020;-73
2024/01/01 02:18:33;;;;;;;;;;;14.00;81.20;;;;;;5053600;28;20399;-72
2024/01/01 02:20:59;;;;;;;;;;;14.40;81.30;;;;;;5053198;28;19948;-71
2024/01/01 02:23:25;;;;;;;;;;;14.40;81.10;;;;;;5053208;28;19920;-71
2024/01/01 02:25:51;;;;;;;;;;;14.40;81.10;;;;;;5053526;28;20265;-71
2024/01/01 02:28:19;;;;;;;;;;;14.50;81.20;;;;;;5053387;28;19966;-71
2024/01/01 02:30:45;;;;;;;;;;;14.40;81.50;;;;;;5053365;28;19915;-71
2024/01/01 02:33:11;;;;;;;;;;;14.40;81.70;;;;;;5053615;28;19957;-73
2024/01/01 02:35:37;;;;;;;;;;;14.50;81.30;;;;;;5052904;28;19925;-73
2024/01/01 02:38:04;;;;;;;;;;;14.40;81.50;;;;;;5052992;28;19912;-74
2024/01/01 02:40:31;;;;;;;;;;;14.40;80.60;;;;;;5053090;28;20341;-74
2024/01/01 02:42:57;;;;;;;;;;;14.50;81.60;;;;;;5052965;28;19977;-74
2024/01/01 02:45:24;;;;;;;;;;;14.40;81.80;;;;;;5052987;28;19962;-72
2024/01/01 02:47:50;;;;;;;;;;;14.30;81.60;;;;;;5053109;28;19932;-72
2024/01/01 02:50:18;;;;;;;;;;;14.30;81.70;;;;;;5052856;28;20352;-72
2024/01/01 02:52:44;;;;;;;;;;;14.30;81.70;;;;;;5052726;28;19919;-72
2024/01/01 02:55:09;;;;;;;;;;;14.40;82.20;;;;;;5052689;28;20287;-72
2024/01/01 02:57:34;;;;;;;;;;;14.10;82.00;;;;;;5052638;28;19921;-72
2024/01/01 03:00:00;;;;;;;;;;;14.30;82.00;;;;;;5052663;28;19948;-72
2024/01/01 03:02:26;;;;;;;;;;;14.40;81.90;;;;;;5051682;28;19916;-72
2024/01/01 03:04:52;;;;;;;;;;;14.30;81.70;;;;;;5050127;28;19927;-72
2024/01/01 03:07:18;;;;;;;;;;;14.30;82.20;;;;;;5050344;28;19908;-71
2024/01/01 03:09:43;;;;;;;;;;;14.30;82.40;;;;;;5050224;28;19913;-72
2024/01/01 03:12:09;;;;;;;;;;;15.90;83.00;;;;;;5050463;28;19915;-72
2024/01/01 03:14:35;;;;;;;;;;;14.30;82.00;;;;;;5033444;28;19912;-72
2024/01/01 03:17:01;;;;;;;;;;;14.40;82.30;;;;;;5051121;28;20003;-72
2024/01/01 03:19:27;;;;;;;;;;;14.30;82.00;;;;;;5051439;28;20402;-71
2024/01/01 03:21:52;;;;;;;;;;;14.30;82.00;;;;;;5051049;28;19931;-72
2024/01/01 03:24:18;;;;;;;;;;;14.30;82.40;;;;;;5051182;28;19932;-71
2024/01/01 03:26:44;;;;;;;;;;;14.30;81.80;;;;;;5050985;28;19912;-72
2024/01/01 03:29:10;;;;;;;;;;;14.30;81.90;;;;;;5050525;28;19909;-72
2024/01/01 03:31:36;;;;;;;;;;;14.30;82.20;;;;;;5050742;28;20038;-73
2024/01/01 03:34:02;;;;;;;;;;;14.30;82.30;;;;;;5051317;28;19944;-74
2024/01/01 03:36:28;;;;;;;;;;;14.30;82.30;;;;;;5050977;28;20010;-74
2024/01/01 03:38:54;;;;;;;;;;;14.40;82.30;;;;;;5050818;28;20385;-74
2024/01/01 03:41:24;;;;;;;;;;;14.30;82.30;;;;;;5050731;28;19995;-74
2024/01/01 03:43:50;;;;;;;;;;;14.30;82.20;;;;;;5050875;28;19912;-74
2024/01/01 03:46:16;;;;;;;;;;;14.30;82.20;;;;;;5050805;28;19909;-74
2024/01/01 03:48:42;;;;;;;;;;;14.30;82.10;;;;;;5050882;28;19958;-74
2024/01/01 03:51:08;;;;;;;;;;;14.30;82.40;;;;;;5050709;28;19932;-72
2024/01/01 03:53:34;;;;;;;;;;;14.20;82.30;;;;;;5050806;28;19952;-72
2024/01/01 03:55:59;;;;;;;;;;;14.30;82.30;;;;;;5050681;28;19916;-72
2024/01/01 03:58:25;;;;;;;;;;;14.20;82.30;;;;;;5050616;28;20407;-72
2024/01/01 04:00:51;;;;;;;;;;;14.30;82.30;;;;;;5050818;28;19936;-71
2024/01/01 04:03:17;;;;;;;;;;;14.30;81.90;;;;;;5050893;28;19967;-71
2024/01/01 04:05:43;;;;;;;;;;;14.30;81.60;;;;;;5050396;28;19992;-71
2024/01/01 04:08:09;;;;;;;;;;;14.30;82.20;;;;;;5050435;28;20004;-73
2024/01/01 04:10:35;;;;;;;;;;;15.90;83.30;;;;;;5050782;28;19996;-71
2024/01/01 04:13:01;;;;;;;;;;;14.20;82.60;;;;;;5050738;28;20371;-72
2024/01/01 04:15:27;;;;;;;;;;;14.30;82.40;;;;;;5050287;28;19908;-71
2024/01/01 04:17:53;;;;;;;;;;;14.50;82.30;;;;;;5050726;28;19909;-71
2024/01/01 04:20:19;;;;;;;;;;;14.30;82.40;;;;;;5050623;28;19966;-72
2024/01/01 04:22:45;;;;;;;;;;;14.10;82.30;;;;;;5050605;28;19909;-72
2024/01/01 04:25:11;;;;;;;;;;;14.20;82.30;;;;;;5050642;28;19988;-71
2024/01/01 04:27:37;;;;;;;;;;;14.40;82.70;;;;;;5050922;28;20003;-72
2024/01/01 04:30:04;;;;;;;;;;;14.20;82.60;;;;;;5050601;28;20058;-72
2024/01/01 04:32:30;;;;;;;;;;;14.20;80.70;;;;;;5050738;28;19999;-71
2024/01/01 04:34:56;;;;;;;;;;;14.10;82.20;;;;;;5050461;28;19991;-71
2024/01/01 04:37:22;;;;;;;;;;;14.20;82.30;;;;;;5050308;28;20071;-72
2024/01/01 04:39:48;;;;;;;;;;;14.20;82.30;;;;;;5051634;28;20320;-71
2024/01/01 04:42:14;;;;;;;;;;;14.20;82.80;;;;;;5054195;28;20313;-72
2024/01/01 04:44:40;;;;;;;;;;;14.30;82.70;;;;;;5054103;28;19913;-72
2024/01/01 04:47:06;;;;;;;;;;;14.20;82.60;;;;;;5054073;28;19916;-73
2024/01/01 04:49:32;;;;;;;;;;;14.20;82.30;;;;;;5054028;28;19988;-72
2024/01/01 04:51:58;;;;;;;;;;;14.20;82.60;;;;;;5053777;28;19931;-72
2024/01/01 04:54:24;;;;;;;;;;;14.20;82.30;;;;;;5053928;28;19913;-73
2024/01/01 04:56:50;;;;;;;;;;;14.30;82.60;;;;;;5053850;28;19916;-73
2024/01/01 04:59:16;;;;;;;;;;;14.30;82.50;;;;;;5053906;28;19909;-72
2024/01/01 05:01:42;;;;;;;;;;;14.20;81.60;;;;;;5349770;23;19924;-74
2024/01/01 05:07:10;;;;;;;;;;;14.20;77.00;;;;;;5081891;28;20451;-74
2024/01/01 05:09:35;;;;;;;;;;;14.30;82.40;;;;;;5075059;28;19908;-74
2024/01/01 05:12:01;;;;;;;;;;;14.20;82.40;;;;;;5075006;28;19971;-74
2024/01/01 05:14:26;;;;;;;;;;;14.20;82.30;;;;;;5074939;28;19916;-73
2024/01/01 05:16:52;;;;;;;;;;;14.30;82.70;;;;;;5074835;28;20310;-74
2024/01/01 05:19:17;;;;;;;;;;;14.20;82.20;;;;;;5075268;28;19992;-74
2024/01/01 05:21:43;;;;;;;;;;;14.20;82.40;;;;;;5056982;28;20358;-74
2024/01/01 05:24:08;;;;;;;;;;;14.20;82.30;;;;;;5074795;28;19944;-74
2024/01/01 05:26:34;;;;;;;;;;;14.20;82.40;;;;;;5074798;28;20396;-74
2024/01/01 05:28:59;;;;;;;;;;;14.20;82.10;;;;;;5074671;28;19961;-73
2024/01/01 05:31:25;;;;;;;;;;;14.20;82.20;;;;;;5074704;28;19953;-74
2024/01/01 05:33:50;;;;;;;;;;;14.20;82.60;;;;;;5074644;28;20282;-74
2024/01/01 05:36:16;;;;;;;;;;;14.20;82.50;;;;;;5075091;28;19916;-73
2024/01/01 05:38:41;;;;;;;;;;;14.20;82.40;;;;;;5074603;28;19999;-73
2024/01/01 05:41:09;;;;;;;;;;;14.20;82.30;;;;;;5074565;28;19912;-73
2024/01/01 05:43:35;;;;;;;;;;;14.20;82.40;;;;;;5074488;28;19977;-72
2024/01/01 05:46:00;;;;;;;;;;;14.20;82.40;;;;;;5074396;28;19908;-72
2024/01/01 05:48:26;;;;;;;;;;;14.20;82.50;;;;;;5074483;28;19915;-73
2024/01/01 05:50:51;;;;;;;;;;;14.20;82.40;;;;;;5074060;28;19909;-73
2024/01/01 05:53:16;;;;;;;;;;;14.30;82.40;;;;;;5074241;28;19912;-73
2024/01/01 05:55:42;;;;;;;;;;;14.20;82.30;;;;;;5074246;28;19923;-73
2024/01/01 05:58:08;;;;;;;;;;;14.20;82.40;;;;;;5074185;28;20370;-72
2024/01/01 06:00:36;;;;;;;;;;;14.20;82.50;;;;;;5074125;28;19908;-73
2024/01/01 06:03:03;;;;;;;;;;;14.10;81.90;;;;;;5073741;28;19943;-73
2024/01/01 06:05:28;;;;;;;;;;;14.20;82.30;;;;;;5074601;28;20011;-74
2024/01/01 06:07:54;;;;;;;;;;;14.20;82.30;;;;;;5073957;28;19963;-74
2024/01/01 06:10:22;;;;;;;;;;;14.20;82.40;;;;;;5073328;28;21623;-74
2024/01/01 06:12:47;;;;;;;;;;;14.10;82.60;;;;;;5073821;28;19958;-73
2024/01/01 06:15:13;;;;;;;;;;;14.20;82.60;;;;;;5073781;28;19999;-74
2024/01/01 06:17:39;;;;;;;;;;;14.20;82.00;;;;;;5074014;28;19962;-74
2024/01/01 06:20:04;;;;;;;;;;;14.20;82.40;;;;;;5073596;28;19992;-74
2024/01/01 06:22:30;;;;;;;;;;;14.20;80.40;;;;;;5073576;28;19955;-73
2024/01/01 06:24:55;;;;;;;;;;;14.10;82.50;;;;;;5073821;28;19908;-74
2024/01/01 06:27:21;;;;;;;;;;;14.20;82.10;;;;;;5073593;28;19908;-74
2024/01/01 06:29:47;;;;;;;;;;;14.10;82.50;;;;;;5073418;28;19958;-74
2024/01/01 06:32:12;;;;;;;;;;;14.20;82.60;;;;;;5073872;28;19909;-74
2024/01/01 06:34:38;;;;;;;;;;;14.10;82.50;;;;;;5073404;28;19934;-74
2024/01/01 06:37:04;;;;;;;;;;;14.20;82.40;;;;;;5073210;28;19916;-74
2024/01/01 06:39:29;;;;;;;;;;;14.20;82.80;;;;;;5073575;28;20324;-74
2024/01/01 06:41:54;;;;;;;;;;;14.20;82.70;;;;;;5055352;28;19908;-74
2024/01/01 06:44:20;;;;;;;;;;;14.20;82.80;;;;;;5073149;28;19908;-72
2024/01/01 06:46:46;;;;;;;;;;;14.20;82.50;;;;;;5073266;28;19995;-72
2024/01/01 06:49:11;;;;;;;;;;;14.20;82.60;;;;;;5072958;28;19916;-72
2024/01/01 06:51:37;;;;;;;;;;;14.20;82.60;;;;;;5073400;28;19947;-72
2024/01/01 06:54:02;;;;;;;;;;;14.30;82.60;;;;;;5073006;28;19908;-72
2024/01/01 06:56:28;;;;;;;;;;;14.10;82.20;;;;;;5072978;28;19921;-72
2024/01/01 06:58:53;;;;;;;;;;;14.20;82.80;;;;;;5073046;28;19954;-72
2024/01/01 07:01:19;;;;;;;;;;;14.10;82.40;;;;;;5073656;28;19909;-72
2024/01/01 07:03:44;;;;;;;;;;;14.20;82.30;;;;;;5072050;28;19925;-72
2024/01/01 07:06:10;;;;;;;;;;;14.30;82.60;;;;;;5072841;28;20173;-72
2024/01/01 07:08:35;;;;;;;;;;;14.10;82.80;;;;;;5073128;28;19909;-72
2024/01/01 07:11:01;;;;;;;;;;;14.10;82.80;;;;;;5072808;28;20363;-72
2024/01/01 07:13:26;;;;;;;;;;;14.10;82.70;;;;;;5072854;28;19916;-72
2024/01/01 07:15:52;;;;;;;;;;;14.20;82.80;;;;;;5054816;28;20342;-72
2024/01/01 07:18:20;;;;;;;;;;;14.50;82.80;;;;;;5072893;28;19913;-73
2024/01/01 07:20:46;;;;;;;;;;;14.10;82.50;;;;;;5072998;28;19943;-73
2024/01/01 07:23:12;;;;;;;;;;;14.20;82.60;;;;;;5072604;28;19916;-72
2024/01/01 07:25:38;;;;;;;;;;;14.40;83.10;;;;;;5072515;28;19908;-72
2024/01/01 07:28:04;;;;;;;;;;;14.10;82.70;;;;;;5072918;28;19908;-72
2024/01/01 07:30:30;;;;;;;;;;;14.00;81.90;;;;;;5072974;28;19909;-74
2024/01/01 07:32:56;;;;;;;;;;;14.40;82.90;;;;;;5072799;28;19908;-74
2024/01/01 07:35:22;;;;;;;;;;;14.10;82.60;;;;;;5072651;28;19934;-74
2024/01/01 07:37:48;;;;;;;;;;;14.30;83.00;;;;;;5072790;28;19983;-74
2024/01/01 07:40:14;;;;;;;;;;;14.10;82.80;;;;;;5072679;28;19947;-74
2024/01/01 07:42:40;;;;;;;;;;;14.10;82.90;;;;;;5072583;28;19915;-72
2024/01/01 07:45:06;;;;;;;;;;;14.30;82.90;;;;;;5072410;28;19909;-72
2024/01/01 07:47:32;;;;;;;;;;;14.10;82.20;;;;;;5072613;28;19908;-72
2024/01/01 07:49:58;;;;;;;;;;;14.00;82.40;;;;;;5072669;28;19931;-72
2024/01/01 07:52:24;;;;;;;;;;;14.10;83.00;;;;;;5072530;28;20326;-72
2024/01/01 07:54:56;;;;;;;;;;;14.10;83.00;;;;;;5072307;28;19909;-73
2024/01/01 07:57:22;;;;;;;;;;;14.10;82.70;;;;;;5073039;28;20290;-72
2024/01/01 07:59:47;;;;;;;;;;;14.20;82.70;;;;;;5072213;28;19909;-72
2024/01/01 08:02:13;;;;;;;;;;;14.20;82.60;;;;;;5072067;28;19919;-72
2024/01/01 08:04:38;;;;;;;;;;;14.10;82.90;;;;;;5072302;28;19908;-72
2024/01/01 08:07:04;;;;;;;;;;;14.10;82.50;;;;;;5072276;28;20398;-72
2024/01/01 08:09:29;;;;;;;;;;;14.10;83.10;;;;;;5072270;28;20007;-73
2024/01/01 08:11:55;;;;;;;;;;;14.10;83.00;;;;;;5072217;28;20362;-74
2024/01/01 08:14:20;;;;;;;;;;;14.00;82.90;;;;;;5073824;28;19912;-73
2024/01/01 08:16:46;;;;;;;;;;;14.10;82.90;;;;;;5076127;28;20453;-74
2024/01/01 08:19:12;;;;;;;;;;;14.10;82.80;;;;;;5076222;28;19916;-73
2024/01/01 08:21:37;;;;;;;;;;;14.10;83.10;;;;;;5075810;28;19960;-74
2024/01/01 08:24:03;;;;;;;;;;;14.40;83.40;;;;;;5075929;28;19909;-74
2024/01/01 08:26:28;;;;;;;;;;;14.10;82.60;;;;;;5076326;28;19960;-74
2024/01/01 08:28:54;;;;;;;;;;;14.00;83.00;;;;;;5076014;28;19908;-74
2024/01/01 08:31:19;;;;;;;;;;;14.00;83.00;;;;;;5075677;28;20282;-74
2024/01/01 08:33:45;;;;;;;;;;;14.00;83.20;;;;;;5075908;28;19955;-73
2024/01/01 08:36:11;;;;;;;;;;;14.00;83.00;;;;;;5075624;28;20039;-74
2024/01/01 08:38:36;;;;;;;;;;;14.10;83.20;;;;;;5075878;28;20576;-73
2024/01/01 08:41:02;;;;;;;;;;;14.10;83.20;;;;;;5075621;28;20051;-72
2024/01/01 08:43:28;;;;;;;;;;;14.10;82.90;;;;;;5075535;28;20042;-72
2024/01/01 08:45:54;;;;;;;;;;;14.10;83.10;;;;;;5075483;28;19909;-72
2024/01/01 08:48:19;;;;;;;;;;;14.00;83.20;;;;;;5075479;28;20285;-73
2024/01/01 08:50:45;;;;;;;;;;;14.10;83.30;;;;;;5075205;28;20007;-72
2024/01/01 08:53:10;;;;;;;;;;;14.00;83.20;;;;;;5075271;28;19931;-73
2024/01/01 08:55:36;;;;;;;;;;;14.00;82.80;;;;;;5075516;28;19909;-73
2024/01/01 08:58:02;;;;;;;;;;;14.10;83.00;;;;;;5075707;28;20003;-75
2024/01/01 09:00:27;;;;;;;;;;;14.20;83.20;;;;;;5075018;28;19912;-76
2024/01/01 09:02:53;;;;;;;;;;;14.00;83.00;;;;;;5074915;28;19920;-73
2024/01/01 09:05:18;;;;;;;;;;;14.00;83.20;;;;;;5075054;28;19909;-74
2024/01/01 09:07:44;;;;;;;;;;;14.00;83.30;;;;;;5074988;28;19909;-75
2024/01/01 09:10:10;;;;;;;;;;;14.00;83.30;;;;;;5075025;28;19916;-73
2024/01/01 09:12:36;;;;;;;;;;;14.00;83.30;;;;;;5075071;28;19908;-73
2024/01/01 09:15:01;;;;;;;;;;;14.00;83.20;;;;;;5074768;28;19908;-74
2024/01/01 09:17:27;;;;;;;;;;;14.00;83.30;;;;;;5074696;28;20278;-74
2024/01/01 09:19:53;;;;;;;;;;;14.10;83.20;;;;;;5074946;28;19964;-75
2024/01/01 09:22:19;;;;;;;;;;;14.00;83.40;;;;;;5074551;28;19915;-74
2024/01/01 09:24:45;;;;;;;;;;;14.00;83.40;;;;;;5074789;28;19909;-74
2024/01/01 09:27:11;;;;;;;;;;;14.00;83.40;;;;;;5074182;28;19961;-73
2024/01/01 09:29:37;;;;;;;;;;;14.00;83.30;;;;;;5074412;28;20404;-74
2024/01/01 09:32:03;;;;;;;;;;;14.00;83.30;;;;;;5074636;28;19917;-74
2024/01/01 09:34:29;;;;;;;;;;;14.00;82.10;;;;;;5074694;28;19915;-74
2024/01/01 09:36:55;;;;;;;;;;;14.00;83.50;;;;;;5074563;28;20019;-74
2024/01/01 09:39:21;;;;;;;;;;;14.00;83.40;;;;;;5074173;28;19908;-74
2024/01/01 09:41:48;;;;;;;;;;;14.00;83.40;;;;;;5074466;28;19909;-73
2024/01/01 09:44:14;;;;;;;;;;;14.00;83.60;;;;;;5075184;28;19916;-73
2024/01/01 09:46:40;;;;;;;;;;;14.00;83.30;;;;;;5080837;28;19954;-73
2024/01/01 09:49:06;;;;;;;;;;;13.90;83.00;;;;;;5078230;28;20279;-73
2024/01/01 09:51:36;;;;;;;;;;;14.00;83.60;;;;;;5074472;28;19908;-73
2024/01/01 09:54:02;;;;;;;;;;;13.90;83.70;;;;;;5073906;28;20007;-75
2024/01/01 09:56:28;;;;;;;;;;;13.90;83.30;;;;;;5074144;28;20011;-73
2024/01/01 09:58:57;;;;;;;;;;;13.90;83.40;;;;;;5073816;28;19943;-72
2024/01/01 10:01:22;;;;;;;;;;;13.90;80.20;;;;;;5073026;28;19959;-74
2024/01/01 10:04:02;;;;;;;;;;;13.90;83.30;;;;;;5073571;28;19963;-72
2024/01/01 10:06:27;;;;;;;;;;;13.90;78.50;;;;;;5073657;28;19916;-75
2024/01/01 10:09:03;;;;;;;;;;;13.90;83.00;;;;;;5073634;28;19957;-74
2024/01/01 10:11:29;;;;;;;;;;;14.00;83.80;;;;;;5073707;28;20420;-74
2024/01/01 10:14:02;;;;;;;;;;;14.00;83.60;;;;;;5073643;28;19912;-75
2024/01/01 10:16:28;;;;;;;;;;;13.90;83.70;;;;;;5073836;28;19921;-75
2024/01/01 10:18:57;;;;;;;;;;;14.00;83.90;;;;;;5073790;28;19915;-75
2024/01/01 10:21:30;;;;;;;;;;;14.00;84.00;;;;;;5073773;28;19909;-75
2024/01/01 10:23:57;;;;;;;;;;;13.90;78.50;;;;;;5073622;28;19908;-74
2024/01/01 10:26:23;;;;;;;;;;;14.00;83.80;;;;;;5073332;28;19947;-74
2024/01/01 10:28:49;;;;;;;;;;;14.00;83.50;;;;;;5073588;28;19909;-74
2024/01/01 10:31:15;;;;;;;;;;;14.00;83.80;;;;;;5073346;28;19915;-72
2024/01/01 10:33:41;;;;;;;;;;;14.00;84.10;;;;;;5073426;28;20007;-73
2024/01/01 10:36:08;;;;;;;;;;;14.00;83.70;;;;;;5073361;28;19960;-72
2024/01/01 10:38:34;;;;;;;;;;;14.10;84.30;;;;;;5073409;28;19916;-71
2024/01/01 10:41:00;;;;;;;;;;;14.00;84.40;;;;;;5073065;28;19908;-72
2024/01/01 10:43:27;;;;;;;;;;;13.80;84.20;;;;;;5074117;28;19915;-72
2024/01/01 10:45:57;;;;;;;;;;;14.00;84.20;;;;;;5074347;28;19908;-72
2024/01/01 10:48:23;;;;;;;;;;;14.00;84.50;;;;;;5073905;28;19991;-72
2024/01/01 10:50:59;;;;;;;;;;;14.10;84.10;;;;;;5073362;28;20323;-72
2024/01/01 10:53:38;;;;;;;;;;;14.20;84.50;;;;;;5072834;28;20366;-71
2024/01/01 10:56:09;;;;;;;;;;;14.10;79.20;;;;;;5073085;28;19995;-72
2024/01/01 10:58:40;;;;;;;;;;;14.10;84.00;;;;;;5073142;28;19952;-72
2024/01/01 11:01:10;;;;;;;;;;;14.20;84.70;;;;;;5072967;28;19916;-72
2024/01/01 11:03:37;;;;;;;;;;;14.20;84.00;;;;;;5072423;28;20343;-72
2024/01/01 11:06:22;;;;;;;;;;;14.30;84.80;;;;;;5072924;28;20275;-71
2024/01/01 11:08:48;;;;;;;;;;;14.40;79.50;;;;;;5072825;28;19913;-71
2024/01/01 11:11:20;;;;;;;;;;;14.20;84.60;;;;;;5072462;28;19915;-70
2024/01/01 11:13:49;;;;;;;;;;;14.30;79.20;;;;;;5071126;28;19909;-72
2024/01/01 11:16:15;;;;;;;;;;;14.30;79.60;;;;;;5071700;28;19916;-72
2024/01/01 11:18:43;;;;;;;;;;;14.20;84.50;;;;;;5071139;28;19954;-72
2024/01/01 11:21:24;;;;;;;;;;;14.40;84.60;;;;;;5071468;28;19908;-70
2024/01/01 11:23:50;;;;;;;;;;;14.30;84.50;;;;;;5072525;28;19916;-71
2024/01/01 11:26:25;;;;;;;;;;;14.30;84.50;;;;;;5072418;28;19908;-70
2024/01/01 11:29:14;;;;;;;;;;;14.40;79.20;;;;;;5072321;28;19908;-71
2024/01/01 11:31:40;;;;;;;;;;;14.30;79.10;;;;;;5058957;28;20347;-72
2024/01/01 11:34:06;;;;;;;;;;;14.40;84.30;;;;;;5072903;28;19952;-73
2024/01/01 11:36:32;;;;;;;;;;;14.50;84.40;;;;;;5072454;28;19916;-73
2024/01/01 11:38:58;;;;;;;;;;;14.50;84.30;;;;;;5072883;28;20424;-75
2024/01/01 11:41:24;;;;;;;;;;;14.50;84.40;;;;;;5072379;28;20325;-76
2024/01/01 11:43:50;;;;;;;;;;;14.40;84.20;;;;;;5072656;28;19909;-75
2024/01/01 11:46:25;;;;;;;;;;;14.40;84.10;;;;;;5072249;28;19908;-76
2024/01/01 11:49:01;;;;;;;;;;;14.50;78.90;;;;;;5073530;28;19908;-74
2024/01/01 11:51:29;;;;;;;;;;;14.50;79.00;;;;;;5076324;28;20386;-74
2024/01/01 11:54:05;;;;;;;;;;;14.30;84.30;;;;;;5076542;28;19908;-73
2024/01/01 11:56:31;;;;;;;;;;;14.50;78.80;;;;;;5076442;28;20282;-73
2024/01/01 11:58:57;;;;;;;;;;;14.50;84.60;;;;;;5076152;28;20528;-74
2024/01/01 12:01:23;;;;;;;;;;;14.40;83.70;;;;;;5076245;28;19954;-75
2024/01/01 12:03:50;;;;;;;;;;;14.50;83.80;;;;;;5076733;28;19924;-74
2024/01/01 12:06:16;;;;;;;;;;;14.60;83.90;;;;;;5076364;28;20313;-74
2024/01/01 12:08:42;;;;;;;;;;;14.60;84.00;;;;;;5076209;28;20273;-74
2024/01/01 12:11:08;;;;;;;;;;;14.50;84.00;;;;;;5075870;28;19918;-76
2024/01/01 12:13:34;;;;;;;;;;;14.50;84.90;;;;;;5075833;28;19913;-75
2024/01/01 12:16:18;;;;;;;;;;;14.60;84.10;;;;;;5076119;28;20283;-76
2024/01/01 12:18:44;;;;;;;;;;;14.70;78.80;;;;;;5076074;28;19938;-76
2024/01/01 12:21:10;;;;;;;;;;;14.60;83.80;;;;;;5076024;28;19913;-77
2024/01/01 12:23:36;;;;;;;;;;;14.60;84.20;;;;;;5075649;28;20279;-72
2024/01/01 12:26:03;;;;;;;;;;;14.60;84.00;;;;;;5075920;28;19962;-72
2024/01/01 12:28:29;;;;;;;;;;;14.60;83.70;;;;;;5075852;28;19908;-71
2024/01/01 12:30:55;;;;;;;;;;;14.70;84.00;;;;;;5075506;28;20420;-72
2024/01/01 12:33:21;;;;;;;;;;;14.60;83.70;;;;;;5075565;28;19953;-72
2024/01/01 12:35:46;;;;;;;;;;;14.80;83.50;;;;;;5075423;28;20003;-74
2024/01/01 12:38:12;;;;;;;;;;;14.80;83.10;;;;;;5075464;28;20286;-72
2024/01/01 12:40:39;;;;;;;;;;;14.90;82.60;;;;;;5075304;28;19919;-76
2024/01/01 12:43:05;;;;;;;;;;;15.00;82.90;;;;;;5075483;28;20070;-76
2024/01/01 12:45:30;;;;;;;;;;;15.10;82.60;;;;;;5075315;28;20159;-76
2024/01/01 12:47:56;;;;;;;;;;;15.20;82.30;;;;;;5075254;28;19909;-76
2024/01/01 12:50:21;;;;;;;;;;;15.30;82.40;;;;;;5075289;28;19908;-75
2024/01/01 12:52:47;;;;;;;;;;;15.40;82.00;;;;;;5075126;28;19913;-77
2024/01/01 12:55:12;;;;;;;;;;;15.40;82.40;;;;;;5075153;28;20003;-75
2024/01/01 12:57:38;;;;;;;;;;;15.50;81.40;;;;;;5075035;28;19916;-74
2024/01/01 13:00:04;;;;;;;;;;;15.60;81.40;;;;;;5074296;28;20317;-74
2024/01/01 13:02:30;;;;;;;;;;;15.70;81.00;;;;;;5074406;28;19923;-74
2024/01/01 13:04:55;;;;;;;;;;;15.70;81.10;;;;;;5075243;28;19995;-74
2024/01/01 13:07:21;;;;;;;;;;;15.80;81.20;;;;;;5075192;28;19908;-75
2024/01/01 13:09:47;;;;;;;;;;;15.90;81.10;;;;;;5074816;28;20416;-74
2024/01/01 13:12:13;;;;;;;;;;;15.90;80.80;;;;;;5074875;28;19908;-74
2024/01/01 13:14:39;;;;;;;;;;;16.10;80.90;;;;;;5074756;28;19912;-74
2024/01/01 13:17:04;;;;;;;;;;;16.00;80.90;;;;;;5075312;28;19923;-73
2024/01/01 13:19:32;;;;;;;;;;;16.10;80.50;;;;;;5074636;28;20264;-75
2024/01/01 13:22:02;;;;;;;;;;;16.00;80.70;;;;;;5074926;28;20248;-75
2024/01/01 13:24:27;;;;;;;;;;;16.10;75.30;;;;;;5074867;28;19912;-75
2024/01/01 13:26:54;;;;;;;;;;;16.10;80.70;;;;;;5074855;28;20381;-75
2024/01/01 13:29:19;;;;;;;;;;;15.90;80.60;;;;;;5074484;28;19915;-75
2024/01/01 13:31:45;;;;;;;;;;;15.90;80.80;;;;;;5074593;28;20317;-75
2024/01/01 13:34:12;;;;;;;;;;;15.90;81.40;;;;;;5074633;28;20259;-75
2024/01/01 13:36:39;;;;;;;;;;;15.80;81.40;;;;;;5074482;28;19916;-75
2024/01/01 13:39:05;;;;;;;;;;;15.70;81.70;;;;;;5074448;28;20433;-74
2024/01/01 13:41:31;;;;;;;;;;;15.70;81.40;;;;;;5074505;28;19955;-79
2024/01/01 13:44:00;;;;;;;;;;;15.70;81.90;;;;;;5074804;28;19912;-74
2024/01/01 13:46:26;;;;;;;;;;;15.70;76.40;;;;;;5074093;28;20393;-75
2024/01/01 13:48:52;;;;;;;;;;;15.70;82.90;;;;;;5074340;28;19909;-75
2024/01/01 13:51:18;;;;;;;;;;;15.70;82.60;;;;;;5074094;28;20440;-75
2024/01/01 13:53:45;;;;;;;;;;;15.80;82.50;;;;;;5074304;28;20275;-74
2024/01/01 13:56:19;;;;;;;;;;;15.70;82.50;;;;;;5074305;28;19920;-74
2024/01/01 13:58:46;;;;;;;;;;;15.60;82.30;;;;;;5074242;28;19913;-74
2024/01/01 14:01:12;;;;;;;;;;;15.60;82.60;;;;;;5074203;28;19987;-76
2024/01/01 14:03:40;;;;;;;;;;;15.60;82.00;;;;;;5073749;28;19948;-80
2024/01/01 14:06:06;;;;;;;;;;;15.70;82.30;;;;;;5073837;28;19908;-75
2024/01/01 14:08:32;;;;;;;;;;;15.60;82.40;;;;;;5073755;28;19909;-76
2024/01/01 14:10:58;;;;;;;;;;;15.60;82.30;;;;;;5073822;28;19984;-77
2024/01/01 14:13:24;;;;;;;;;;;16.00;82.30;;;;;;5073434;28;19908;-77
2024/01/01 14:15:51;;;;;;;;;;;15.60;82.50;;;;;;5056056;28;19913;-73